This is the latest recevied weather packets stored in our database for station/object KJ5FA-10. If no packets are shown the sender has not sent any weather packets the latest 10 day(s).
| Time | Temp. | Humidity | Pressure | Rain* | Wind** | Luminosity | Snow |
|---|---|---|---|---|---|---|---|
| 1787924602 | 25° C | 72% | 1019.7 hPa | 0 mm | - | - | - |
| 1787923702 | 24.44° C | 74% | 1019.6 hPa | 0 mm | - | - | - |
| 1787921001 | 22.22° C | 88% | 1019.2 hPa | 0 mm | - | - | - |
| 1787920101 | 21.67° C | 92% | 1019.3 hPa | 0 mm | - | - | - |
| 1787918301 | 21.67° C | 92% | 1019.1 hPa | 0 mm | - | - | - |
| 1787917401 | 21.67° C | 92% | 1019.1 hPa | 0 mm | - | - | - |
| 1787916501 | 22.22° C | 91% | 1018.9 hPa | 0 mm | - | - | - |
| 1787915601 | 22.22° C | 91% | 1018.8 hPa | 0 mm | - | - | - |
| 1787914701 | 22.22° C | 90% | 1018.6 hPa | 0 mm | - | - | - |
| 1787913801 | 22.22° C | 91% | 1018.7 hPa | 0 mm | - | - | - |
| 1787912901 | 22.78° C | 91% | 1018.8 hPa | 0 mm | - | - | - |
| 1787912001 | 22.78° C | 90% | 1018.7 hPa | 0 mm | - | - | - |
| 1787911101 | 23.33° C | 89% | 1018.5 hPa | 0 mm | - | - | - |
| 1787910201 | 23.33° C | 88% | 1018.4 hPa | 0 mm | - | - | - |
| 1787909302 | 23.33° C | 88% | 1018.5 hPa | 0 mm | - | - | - |
| 1787908401 | 23.33° C | 88% | 1018.1 hPa | 0 mm | - | - | - |
| 1787907501 | 23.33° C | 87% | 1017.9 hPa | 0 mm | - | - | - |
| 1787906601 | 23.89° C | 87% | 1018 hPa | 0 mm | - | - | - |
| 1787905701 | 23.89° C | 86% | 1018 hPa | 0 mm | - | - | - |
| 1787904802 | 23.89° C | 85% | 1018.3 hPa | 0 mm | - | - | - |
| 1787903901 | 24.44° C | 84% | 1018.3 hPa | 0 mm | - | - | - |
| 1787903001 | 24.44° C | 85% | 1018.2 hPa | 0 mm | - | - | - |
| 1787902102 | 24.44° C | 86% | 1018.3 hPa | 0 mm | - | - | - |
| 1787901621 | 24.44° C | 84% | 1017.8 hPa | 0 mm | - | - | - |
| 1787901381 | 24.44° C | 85% | 1018.1 hPa | 0 mm | - | - | - |
* Rain latest hour (hover to see other rain measurements)
** Current wind speed in m/s (hover to see current wind gust speed)